Página principal
METAR-TAF:

METAR-TAF

Aeroportos :

Ecaterimburgo, Rússia

Aeroporto Internacional de Ecaterimburgo-Koltsovo

latitude: 56-50N, longitude: 060-38E, altura: 237 m

Observação actual do tempo

O boletim foi feito há 20 minutos, às 18:30 UTC
Vento 6 kt de sul, variando entre sul e sudoeste
Temperatura 7°C
Humidade 66%
Pressão 1022 hPa
Visibilidade 10 km ou mais
sem nuvens abaixo de 1500 metros e sem cumulonimbus

METAR: USSS 271830Z 19003MPS 170V230 CAVOK 07/01 Q1022 R26R/010060 NOSIG RMK QFE746/0994

Hora: 23:50 (18:50 UTC)

Previsão

O boletim foi feito há 1 hora e 55 minutos, às 16:55 UTC
Previsão válida de 27 às 18 UTC a 28 às 18 UTC
Vento 8 kt de sul
Visibilidade 10 km ou mais
Nuvens fragmentadasa uma altura de 2000 ft, Cumulonimbus.
Temporariamente
de 27 às 18 UTC a 28 às 06 UTC
Vento 17 kt de su-sudoeste
Visibilidade: 3100 m
aguaceiros fracos de chuva, neblina

TAF: USSS 271655Z 2718/2818 19004MPS 9999 BKN020CB TEMPO 2718/2806 21009MPS 3100 -SHRA BR

Observações e previsões do tempo de mais de 4000 aeroportos (mensagens METAR e TAF).

As estações disponíveis são os pontos amarelos e vermelhos sobre o mapa.

Mova o rato sobre o mapa para ver o nome da estação.

Depois clique no ponto para visualizar as observações e previsões meteorológicas.

Para alterar o mapa : clique nos botões verdes com uma cruz preta para aumentar o zoom; no botão verde com uma pitada de zoom; ou nas setas verdes para mapas adjacentes.


METAR-TAF: